Time;durP1;ratioP1;P1;durP2;ratioP2;P2;SDS_P1;SDS_P2;PMS_P1;PMS_P2;Temp;Humidity;BMP_temperature;BMP_pressure;BME280_temperature;BME280_humidity;BME280_pressure;Samples;Min_cycle;Max_cycle;Signal;HPM_P1;HPM_P2
2022/08/09 00:00:58;;;;;;;2.37;2.17;;;17.20;95.20;;;;;;4993186;28;20470;-71
2022/08/09 00:03:25;;;;;;;2.50;1.30;;;17.20;95.50;;;;;;4991837;28;20486;-70
2022/08/09 00:05:52;;;;;;;1.80;1.60;;;17.20;95.30;;;;;;4991674;28;20495;-71
2022/08/09 00:08:20;;;;;;;1.67;1.27;;;17.20;95.30;;;;;;4992898;28;20463;-70
2022/08/09 00:10:46;;;;;;;1.60;1.50;;;17.10;95.30;;;;;;4993028;28;20463;-70
2022/08/09 00:13:14;;;;;;;1.60;1.50;;;17.10;95.10;;;;;;4992437;28;20474;-70
2022/08/09 00:15:41;;;;;;;2.30;1.37;;;17.10;95.20;;;;;;4991613;28;20465;-70
2022/08/09 00:18:08;;;;;;;1.83;1.60;;;17.10;95.30;;;;;;4993169;28;20482;-70
2022/08/09 00:20:34;;;;;;;1.40;1.30;;;17.00;95.40;;;;;;4992891;28;20471;-70
2022/08/09 00:23:01;;;;;;;1.80;1.70;;;17.00;95.70;;;;;;4993630;28;20821;-70
2022/08/09 00:25:29;;;;;;;1.60;1.50;;;17.00;95.80;;;;;;4992376;28;20493;-70
2022/08/09 00:27:56;;;;;;;1.80;1.53;;;16.90;95.70;;;;;;4993374;28;20486;-70
2022/08/09 00:30:23;;;;;;;1.83;1.57;;;16.90;95.70;;;;;;4993211;28;20470;-70
2022/08/09 00:32:49;;;;;;;1.80;1.70;;;16.90;95.70;;;;;;4993555;28;20474;-70
2022/08/09 00:35:16;;;;;;;2.70;2.07;;;16.80;95.70;;;;;;4992261;28;20458;-71
2022/08/09 00:37:43;;;;;;;2.50;1.63;;;16.80;95.80;;;;;;4992820;28;20478;-71
2022/08/09 00:40:11;;;;;;;3.27;1.80;;;16.80;95.80;;;;;;4993072;28;20473;-70
2022/08/09 00:42:39;;;;;;;1.90;1.70;;;16.80;95.90;;;;;;4992562;28;20898;-70
2022/08/09 00:45:07;;;;;;;1.67;1.57;;;16.70;96.00;;;;;;4992376;28;20522;-70
2022/08/09 00:47:34;;;;;;;1.70;1.60;;;16.70;96.00;;;;;;4992324;28;21001;-70
2022/08/09 00:50:00;;;;;;;1.67;1.57;;;16.70;96.20;;;;;;4992635;28;20470;-70
2022/08/09 00:52:29;;;;;;;1.90;1.70;;;16.60;96.30;;;;;;4992189;28;20463;-70
2022/08/09 00:54:56;;;;;;;1.70;1.60;;;16.60;96.60;;;;;;4992167;28;20970;-71
2022/08/09 00:57:23;;;;;;;2.97;1.80;;;16.60;96.80;;;;;;4992391;28;21041;-70
2022/08/09 00:59:51;;;;;;;2.03;1.83;;;16.60;96.90;;;;;;4992161;28;20470;-70
2022/08/09 01:02:21;;;;;;;2.77;1.90;;;16.50;96.90;;;;;;4992652;28;20836;-70
2022/08/09 01:04:57;;;;;;;1.60;1.20;;;16.50;97.10;;;;;;4991336;28;20587;-70
2022/08/09 01:07:31;;;;;;;3.70;2.10;;;16.50;97.10;;;;;;4992263;28;20901;-70
2022/08/09 01:10:03;;;;;;;1.80;1.70;;;16.50;97.10;;;;;;4992233;28;20557;-70
2022/08/09 01:12:38;;;;;;;1.90;1.80;;;16.50;97.10;;;;;;4992202;28;20466;-70
2022/08/09 01:15:09;;;;;;;2.03;1.70;;;16.50;97.10;;;;;;4991887;28;20458;-70
2022/08/09 01:17:38;;;;;;;1.70;1.60;;;16.50;97.20;;;;;;4991666;28;20487;-70
2022/08/09 01:20:09;;;;;;;1.97;1.67;;;16.40;97.00;;;;;;4992169;28;20471;-70
2022/08/09 01:22:55;;;;;;;1.70;1.60;;;16.40;96.80;;;;;;4991581;28;20470;-70
2022/08/09 01:25:34;;;;;;;1.90;1.70;;;16.40;96.80;;;;;;4991290;28;20486;-70
2022/08/09 01:28:05;;;;;;;1.57;1.47;;;16.40;97.10;;;;;;4991586;28;20509;-71
2022/08/09 01:30:34;;;;;;;1.70;1.60;;;16.30;97.00;;;;;;4991914;28;20459;-70
2022/08/09 01:33:01;;;;;;;1.80;1.70;;;16.30;97.00;;;;;;4991628;28;20466;-70
2022/08/09 01:35:35;;;;;;;1.40;1.30;;;16.20;97.00;;;;;;4991110;28;20458;-70
2022/08/09 01:38:06;;;;;;;1.97;1.83;;;16.20;97.00;;;;;;4991969;28;20570;-70
2022/08/09 01:40:35;;;;;;;1.90;1.80;;;16.10;97.10;;;;;;5117422;22;20485;-71
2022/08/09 01:43:05;;;;;;;5.07;1.60;;;16.10;97.00;;;;;;5031360;28;20841;-71
2022/08/09 01:45:33;;;;;;;1.97;1.77;;;16.00;96.90;;;;;;5030408;28;20488;-70
2022/08/09 01:48:02;;;;;;;1.87;1.30;;;16.00;96.80;;;;;;5031309;28;20471;-71
2022/08/09 01:50:30;;;;;;;2.10;1.90;;;16.00;97.10;;;;;;5031472;28;20504;-71
2022/08/09 01:52:59;;;;;;;2.03;1.80;;;16.00;97.40;;;;;;5031346;28;20872;-70
2022/08/09 01:55:27;;;;;;;1.70;1.57;;;16.00;97.30;;;;;;5030473;28;20461;-70
2022/08/09 01:57:55;;;;;;;2.43;2.00;;;16.00;97.40;;;;;;5030927;28;20481;-70
2022/08/09 02:00:25;;;;;;;1.50;1.40;;;15.90;97.60;;;;;;5031057;28;20465;-70
2022/08/09 02:02:53;;;;;;;1.83;1.57;;;15.90;97.60;;;;;;5030886;28;20519;-71
2022/08/09 02:05:23;;;;;;;2.17;1.80;;;15.90;97.70;;;;;;5030326;28;21027;-70
2022/08/09 02:07:53;;;;;;;2.73;1.70;;;15.80;97.80;;;;;;5030784;28;20481;-71
2022/08/09 02:10:23;;;;;;;1.93;1.70;;;15.80;97.80;;;;;;5030869;28;20842;-70
2022/08/09 02:12:50;;;;;;;2.27;1.80;;;15.80;98.00;;;;;;5030596;28;20465;-71
2022/08/09 02:15:19;;;;;;;2.33;2.13;;;15.80;98.00;;;;;;5030262;28;20465;-70
2022/08/09 02:17:51;;;;;;;1.70;1.60;;;15.80;98.30;;;;;;5030574;28;20484;-71
2022/08/09 02:20:18;;;;;;;1.93;1.77;;;15.80;98.40;;;;;;5030445;28;20461;-70
2022/08/09 02:22:51;;;;;;;1.60;1.50;;;15.80;98.40;;;;;;5030710;28;20472;-71
2022/08/09 02:25:22;;;;;;;2.07;1.87;;;15.70;98.50;;;;;;5029943;28;20700;-70
2022/08/09 02:27:52;;;;;;;1.60;1.50;;;15.70;98.40;;;;;;5030734;28;20861;-71
2022/08/09 02:30:19;;;;;;;1.90;1.70;;;15.70;98.60;;;;;;5033155;28;20474;-70
2022/08/09 02:32:49;;;;;;;1.60;1.50;;;15.60;98.60;;;;;;5034520;28;20468;-70
2022/08/09 02:35:21;;;;;;;2.33;2.10;;;15.60;98.60;;;;;;5034075;28;20465;-70
2022/08/09 02:37:52;;;;;;;2.00;1.80;;;15.60;98.80;;;;;;5034600;28;20488;-71
2022/08/09 02:40:22;;;;;;;2.53;2.00;;;15.60;98.50;;;;;;5034358;28;20480;-70
2022/08/09 02:42:52;;;;;;;1.60;1.50;;;15.60;98.80;;;;;;5034217;28;20468;-70
2022/08/09 02:45:27;;;;;;;1.80;1.70;;;15.60;98.80;;;;;;5032619;28;20481;-70
2022/08/09 02:48:00;;;;;;;2.30;2.10;;;15.60;99.00;;;;;;5034094;28;20480;-70
2022/08/09 02:50:31;;;;;;;1.87;1.77;;;15.50;99.20;;;;;;5034189;28;20463;-70
2022/08/09 02:53:02;;;;;;;1.70;1.60;;;15.50;99.30;;;;;;5034062;28;20456;-70
2022/08/09 02:55:30;;;;;;;4.70;1.93;;;15.50;99.40;;;;;;5033578;28;20483;-70
2022/08/09 02:57:59;;;;;;;2.27;2.07;;;15.50;99.40;;;;;;5034006;28;21031;-70
2022/08/09 03:00:27;;;;;;;2.03;1.90;;;15.40;99.20;;;;;;5033774;28;20472;-70
2022/08/09 03:02:57;;;;;;;2.30;2.10;;;15.40;99.30;;;;;;5034197;28;20465;-70
2022/08/09 03:05:26;;;;;;;3.37;3.07;;;15.40;99.40;;;;;;5033048;28;20491;-70
2022/08/09 03:07:55;;;;;;;1.80;1.70;;;15.40;99.50;;;;;;5033775;28;20485;-70
2022/08/09 03:10:22;;;;;;;2.17;1.97;;;15.40;99.60;;;;;;5033529;28;20506;-70
2022/08/09 03:12:51;;;;;;;2.27;2.07;;;15.30;99.60;;;;;;5033896;28;20465;-70
2022/08/09 03:15:19;;;;;;;2.40;2.00;;;15.30;99.60;;;;;;5033181;28;20519;-70
2022/08/09 03:17:46;;;;;;;2.87;2.60;;;15.30;99.60;;;;;;5033702;28;20481;-71
2022/08/09 03:20:15;;;;;;;2.30;2.20;;;15.30;99.80;;;;;;5033704;28;20464;-70
2022/08/09 03:22:45;;;;;;;2.10;1.90;;;15.20;99.90;;;;;;5033344;28;20464;-70
2022/08/09 03:25:13;;;;;;;2.70;2.50;;;15.20;99.90;;;;;;5033282;28;20481;-70
2022/08/09 03:27:41;;;;;;;2.30;2.20;;;15.20;99.90;;;;;;5033148;28;20480;-70
2022/08/09 03:30:09;;;;;;;1.93;1.80;;;15.20;99.90;;;;;;5033471;28;20465;-70
2022/08/09 03:32:37;;;;;;;2.63;2.43;;;15.20;99.90;;;;;;5033126;28;20464;-70
2022/08/09 03:35:04;;;;;;;2.57;2.37;;;15.20;99.90;;;;;;5033057;28;20464;-70
2022/08/09 03:37:33;;;;;;;2.67;2.47;;;15.10;99.90;;;;;;5032817;28;20948;-71
2022/08/09 03:40:00;;;;;;;1.90;1.80;;;15.10;99.90;;;;;;5032426;28;20968;-71
2022/08/09 03:42:26;;;;;;;2.40;2.20;;;15.10;99.90;;;;;;5032201;28;20471;-69
2022/08/09 03:44:53;;;;;;;3.43;2.13;;;15.10;99.90;;;;;;5032375;28;20882;-70
2022/08/09 03:47:20;;;;;;;2.20;2.00;;;15.10;99.90;;;;;;5033158;28;20489;-71
2022/08/09 03:49:47;;;;;;;2.70;2.30;;;15.10;99.90;;;;;;5032808;28;20522;-71
2022/08/09 03:52:16;;;;;;;2.77;2.53;;;15.00;99.90;;;;;;5033118;28;20979;-71
2022/08/09 03:54:46;;;;;;;2.30;2.10;;;15.00;99.90;;;;;;5032158;28;20488;-70
2022/08/09 03:57:14;;;;;;;2.17;2.07;;;15.00;99.90;;;;;;5032834;28;20988;-70
2022/08/09 03:59:41;;;;;;;2.50;2.30;;;14.90;99.90;;;;;;5032524;28;20472;-70
2022/08/09 04:02:08;;;;;;;2.70;2.50;;;14.90;99.90;;;;;;5032810;28;20466;-70
2022/08/09 04:04:35;;;;;;;2.90;2.30;;;14.90;99.90;;;;;;5032121;28;20468;-71
2022/08/09 04:07:03;;;;;;;2.73;2.53;;;15.00;99.90;;;;;;5031975;28;20909;-71
2022/08/09 04:09:30;;;;;;;2.83;2.63;;;15.00;99.90;;;;;;5032295;28;20473;-71
2022/08/09 04:12:25;;;;;;;3.30;3.00;;;15.00;99.90;;;;;;5032464;28;20818;-70
2022/08/09 04:14:51;;;;;;;3.00;2.20;;;15.00;99.90;;;;;;5031655;28;20882;-70
2022/08/09 04:17:18;;;;;;;2.37;2.17;;;15.00;99.90;;;;;;5032460;28;20484;-70
2022/08/09 04:19:45;;;;;;;2.83;2.33;;;15.00;99.90;;;;;;5031855;28;20538;-69
2022/08/09 04:22:11;;;;;;;2.60;2.20;;;14.90;99.90;;;;;;5032534;28;20464;-70
2022/08/09 04:24:38;;;;;;;2.60;2.40;;;14.90;99.90;;;;;;5031418;28;20476;-70
2022/08/09 04:27:06;;;;;;;2.70;2.50;;;14.90;99.90;;;;;;5032275;28;20497;-70
2022/08/09 04:29:33;;;;;;;2.70;2.50;;;14.90;99.90;;;;;;5031584;28;20468;-69
2022/08/09 04:31:59;;;;;;;2.63;2.40;;;14.90;99.90;;;;;;5032052;28;20470;-70
2022/08/09 04:34:28;;;;;;;2.63;2.43;;;14.90;99.90;;;;;;5031508;28;20484;-70
2022/08/09 04:36:55;;;;;;;2.47;2.27;;;14.90;99.90;;;;;;5031982;28;20941;-70
2022/08/09 04:39:22;;;;;;;3.10;2.77;;;14.90;99.90;;;;;;5032021;28;20480;-70
2022/08/09 04:41:48;;;;;;;3.03;2.83;;;14.90;99.90;;;;;;5031903;28;20515;-69
2022/08/09 04:44:17;;;;;;;2.63;2.43;;;14.90;99.90;;;;;;5031512;28;20850;-70
2022/08/09 04:46:43;;;;;;;2.53;2.33;;;14.90;99.90;;;;;;5031581;28;20489;-70
2022/08/09 04:49:10;;;;;;;3.20;2.80;;;14.90;99.90;;;;;;5031726;28;20472;-69
2022/08/09 04:51:36;;;;;;;3.07;2.77;;;14.90;99.90;;;;;;5031710;28;20469;-70
2022/08/09 04:54:03;;;;;;;3.07;2.77;;;15.00;99.90;;;;;;5097601;23;21148;-68
2022/08/09 04:56:30;;;;;;;2.77;2.57;;;15.00;99.90;;;;;;4992252;28;20608;-69
2022/08/09 04:58:57;;;;;;;2.87;2.60;;;15.00;99.90;;;;;;4991754;28;20525;-69
2022/08/09 05:01:25;;;;;;;2.50;2.30;;;15.10;99.90;;;;;;4992124;28;20462;-68
2022/08/09 05:03:52;;;;;;;2.70;2.50;;;15.10;99.90;;;;;;4991437;28;20517;-70
2022/08/09 05:06:18;;;;;;;2.37;1.90;;;15.10;99.90;;;;;;4991661;28;20491;-68
2022/08/09 05:08:45;;;;;;;2.70;2.50;;;15.20;99.90;;;;;;4991788;28;20467;-69
2022/08/09 05:11:12;;;;;;;2.63;2.43;;;15.20;99.90;;;;;;4991570;28;20521;-69
2022/08/09 05:13:40;;;;;;;2.73;2.53;;;15.30;99.90;;;;;;4991398;28;20541;-68
2022/08/09 05:16:07;;;;;;;2.60;2.40;;;15.30;99.90;;;;;;4991465;28;21017;-68
2022/08/09 05:18:35;;;;;;;2.97;2.77;;;15.30;99.90;;;;;;4991973;28;20498;-69
2022/08/09 05:21:03;;;;;;;2.80;2.60;;;15.40;99.90;;;;;;4991571;28;20958;-69
2022/08/09 05:23:30;;;;;;;3.13;2.90;;;15.50;99.90;;;;;;4990999;28;20462;-69
2022/08/09 05:25:57;;;;;;;2.70;2.50;;;15.60;99.90;;;;;;4991136;28;20487;-69
2022/08/09 05:28:23;;;;;;;3.20;3.00;;;15.60;99.90;;;;;;4991143;28;20521;-69
2022/08/09 05:30:50;;;;;;;3.00;2.80;;;15.70;99.90;;;;;;4991310;28;20469;-69
2022/08/09 05:33:17;;;;;;;4.07;3.57;;;15.80;99.90;;;;;;4991120;28;20473;-69
2022/08/09 05:35:45;;;;;;;2.83;2.63;;;15.90;99.90;;;;;;4991137;28;20974;-69
2022/08/09 05:38:11;;;;;;;3.20;2.90;;;15.90;99.90;;;;;;4972883;28;20483;-69
2022/08/09 05:40:38;;;;;;;2.70;2.50;;;16.00;99.90;;;;;;4960542;28;20463;-69
2022/08/09 05:43:06;;;;;;;3.20;2.90;;;16.10;99.90;;;;;;4957485;28;21192;-69
2022/08/09 05:45:32;;;;;;;3.10;2.80;;;16.10;99.90;;;;;;4951791;29;20500;-69
2022/08/09 05:47:59;;;;;;;3.50;3.20;;;16.20;99.90;;;;;;4952460;29;20493;-69
2022/08/09 05:50:26;;;;;;;3.33;3.03;;;16.30;99.90;;;;;;4952178;29;20464;-69
2022/08/09 05:52:54;;;;;;;3.27;2.90;;;16.30;99.90;;;;;;4952397;29;20474;-69
2022/08/09 05:55:21;;;;;;;2.73;2.53;;;16.50;99.90;;;;;;4951652;29;20484;-69
2022/08/09 05:57:48;;;;;;;2.73;2.53;;;16.50;99.90;;;;;;4951969;29;20480;-69
2022/08/09 06:00:15;;;;;;;2.67;2.47;;;16.60;99.90;;;;;;4957713;28;20835;-70
2022/08/09 06:02:42;;;;;;;2.70;2.50;;;16.70;99.90;;;;;;4990464;28;20466;-69
2022/08/09 06:05:10;;;;;;;3.30;2.80;;;16.90;99.90;;;;;;4978981;28;20518;-69
2022/08/09 06:07:37;;;;;;;3.20;2.30;;;16.90;99.90;;;;;;4951791;29;20496;-69
2022/08/09 06:10:06;;;;;;;2.60;2.40;;;17.10;99.90;;;;;;4951962;29;20972;-69
2022/08/09 06:12:33;;;;;;;2.50;2.30;;;17.10;99.90;;;;;;4951764;28;20899;-69
2022/08/09 06:14:59;;;;;;;3.37;2.93;;;17.20;99.90;;;;;;4951489;29;20575;-69
2022/08/09 06:17:26;;;;;;;2.47;2.27;;;17.30;99.90;;;;;;4952131;29;20480;-69
2022/08/09 06:19:53;;;;;;;4.00;2.80;;;17.50;99.90;;;;;;4951782;29;20917;-69
2022/08/09 06:22:19;;;;;;;2.60;2.40;;;17.50;99.90;;;;;;4951625;29;20459;-70
2022/08/09 06:24:46;;;;;;;3.27;2.17;;;17.60;99.90;;;;;;4951141;29;20205;-70
2022/08/09 06:27:14;;;;;;;2.90;2.23;;;17.80;99.90;;;;;;4951729;28;20492;-70
2022/08/09 06:29:41;;;;;;;2.70;2.50;;;17.80;99.90;;;;;;4951752;29;20489;-68
2022/08/09 06:32:08;;;;;;;2.50;2.30;;;17.90;99.90;;;;;;4982358;28;20203;-67
2022/08/09 06:34:34;;;;;;;2.30;2.10;;;18.00;99.90;;;;;;4990117;28;20962;-68
2022/08/09 06:37:01;;;;;;;2.53;2.33;;;18.20;99.90;;;;;;4990100;28;20486;-69
2022/08/09 06:39:29;;;;;;;2.50;2.30;;;18.30;99.90;;;;;;4990403;28;20471;-68
2022/08/09 06:41:56;;;;;;;2.77;2.47;;;18.40;99.90;;;;;;4990127;28;20554;-68
2022/08/09 06:44:24;;;;;;;2.40;2.17;;;18.50;99.90;;;;;;4990195;28;20493;-68
2022/08/09 06:46:51;;;;;;;2.50;2.30;;;18.60;99.90;;;;;;4990218;28;20493;-68
2022/08/09 06:49:17;;;;;;;2.30;2.10;;;18.70;99.90;;;;;;4989985;28;20466;-69
2022/08/09 06:51:44;;;;;;;2.50;2.30;;;18.80;99.90;;;;;;4990422;28;20529;-68
2022/08/09 06:54:12;;;;;;;3.50;2.73;;;19.00;99.90;;;;;;4989938;28;20478;-66
2022/08/09 06:56:38;;;;;;;2.83;2.40;;;19.10;99.90;;;;;;4990727;28;20556;-69
2022/08/09 06:59:05;;;;;;;2.67;2.47;;;19.20;99.90;;;;;;4990573;28;20489;-69
2022/08/09 07:01:33;;;;;;;2.40;2.20;;;19.30;99.90;;;;;;4990619;28;20467;-66
2022/08/09 07:04:00;;;;;;;3.20;2.80;;;19.40;99.90;;;;;;4990020;28;20470;-67
2022/08/09 07:06:26;;;;;;;2.57;2.37;;;19.40;99.40;;;;;;4990310;28;20490;-69
2022/08/09 07:08:53;;;;;;;2.20;2.00;;;19.50;99.40;;;;;;4990276;28;20463;-68
2022/08/09 07:11:20;;;;;;;2.93;2.73;;;19.70;99.30;;;;;;4990433;28;20463;-69
2022/08/09 07:13:46;;;;;;;2.80;2.50;;;19.80;99.00;;;;;;4989871;28;20462;-68
2022/08/09 07:16:13;;;;;;;2.47;2.27;;;19.90;98.90;;;;;;4992855;28;20483;-69
2022/08/09 07:18:41;;;;;;;4.90;2.73;;;20.00;99.40;;;;;;4993631;28;20469;-69
2022/08/09 07:21:08;;;;;;;2.40;2.20;;;20.10;99.20;;;;;;4994278;28;20477;-68
2022/08/09 07:23:35;;;;;;;2.40;2.00;;;20.30;98.30;;;;;;4993304;28;20466;-68
2022/08/09 07:26:02;;;;;;;2.67;2.43;;;20.30;98.10;;;;;;4993714;28;20835;-68
2022/08/09 07:28:30;;;;;;;2.57;2.37;;;20.40;98.10;;;;;;4994122;28;20470;-69
2022/08/09 07:30:56;;;;;;;2.40;2.20;;;20.50;98.40;;;;;;4993503;28;20472;-68
2022/08/09 07:33:23;;;;;;;2.60;2.40;;;20.60;97.70;;;;;;4990700;28;20470;-68
2022/08/09 07:35:51;;;;;;;2.00;1.90;;;20.70;98.40;;;;;;4993207;28;20458;-68
2022/08/09 07:38:18;;;;;;;2.40;1.97;;;20.80;97.40;;;;;;4987238;28;20499;-68
2022/08/09 07:40:45;;;;;;;2.60;2.20;;;20.90;97.20;;;;;;4991396;28;20459;-68
2022/08/09 07:43:12;;;;;;;2.33;2.13;;;20.90;97.00;;;;;;4992213;28;20829;-68
2022/08/09 07:45:38;;;;;;;2.63;2.40;;;21.00;96.60;;;;;;4993090;28;20479;-66
2022/08/09 07:48:05;;;;;;;1.80;1.70;;;21.10;96.00;;;;;;4988188;28;20492;-67
2022/08/09 07:50:34;;;;;;;3.00;2.00;;;21.20;96.70;;;;;;4992278;28;20477;-69
2022/08/09 07:53:02;;;;;;;2.03;1.93;;;21.30;95.80;;;;;;4992240;28;20486;-67
2022/08/09 07:55:29;;;;;;;2.70;2.40;;;21.40;95.80;;;;;;4990973;28;20534;-66
2022/08/09 07:57:56;;;;;;;2.43;2.23;;;21.50;96.50;;;;;;4991790;28;20541;-66
2022/08/09 08:00:24;;;;;;;2.60;2.10;;;21.60;96.30;;;;;;4991792;28;20475;-67
2022/08/09 08:02:52;;;;;;;3.00;2.30;;;21.80;96.20;;;;;;4992077;28;20842;-67
2022/08/09 08:05:19;;;;;;;2.23;2.03;;;21.90;96.10;;;;;;4991023;28;20509;-67
2022/08/09 08:07:46;;;;;;;2.00;1.90;;;22.00;95.80;;;;;;4991810;28;20590;-65
2022/08/09 08:10:14;;;;;;;2.37;2.17;;;22.20;95.90;;;;;;4964941;28;20467;-69
2022/08/09 08:12:43;;;;;;;2.20;1.90;;;22.30;95.20;;;;;;4963802;28;20801;-69
2022/08/09 08:15:10;;;;;;;2.40;2.10;;;22.40;95.50;;;;;;4963133;28;20464;-69
2022/08/09 08:17:37;;;;;;;2.17;2.07;;;22.60;95.50;;;;;;4963190;28;20485;-69
2022/08/09 08:20:05;;;;;;;2.70;2.00;;;22.70;94.30;;;;;;4973363;28;20561;-69
2022/08/09 08:22:31;;;;;;;2.30;2.10;;;22.80;94.00;;;;;;4973682;28;20459;-69
2022/08/09 08:25:02;;;;;;;1.80;1.70;;;22.80;94.60;;;;;;4977597;28;20527;-68
2022/08/09 08:27:30;;;;;;;2.27;2.07;;;22.90;94.70;;;;;;4972718;28;20519;-69
2022/08/09 08:29:57;;;;;;;2.43;2.23;;;23.00;95.00;;;;;;4973771;28;20469;-70
2022/08/09 08:32:24;;;;;;;2.37;2.17;;;23.10;93.70;;;;;;4972457;28;20471;-69
2022/08/09 08:34:52;;;;;;;2.37;2.17;;;23.20;93.80;;;;;;4972581;28;20469;-69
2022/08/09 08:37:18;;;;;;;2.13;2.00;;;23.30;94.10;;;;;;4972476;28;21336;-69
2022/08/09 08:39:45;;;;;;;1.80;1.63;;;23.40;94.30;;;;;;4972862;28;20473;-69
2022/08/09 08:42:12;;;;;;;2.10;2.00;;;23.50;94.00;;;;;;4972311;28;20497;-72
2022/08/09 08:44:42;;;;;;;2.30;2.10;;;23.60;93.80;;;;;;4971882;28;20470;-70
2022/08/09 08:47:09;;;;;;;2.60;2.07;;;23.80;93.70;;;;;;4972445;28;20497;-70
2022/08/09 08:49:37;;;;;;;2.10;1.90;;;23.90;93.30;;;;;;4972818;28;20904;-69
2022/08/09 08:52:04;;;;;;;2.23;1.80;;;23.90;93.60;;;;;;4973023;28;20471;-68
2022/08/09 08:54:31;;;;;;;2.50;2.30;;;24.00;94.30;;;;;;4971070;28;20481;-69
2022/08/09 08:56:58;;;;;;;7.93;2.30;;;24.10;93.30;;;;;;4972663;28;20482;-69
2022/08/09 08:59:25;;;;;;;3.23;2.37;;;24.30;94.10;;;;;;4972596;28;20462;-71
2022/08/09 09:01:54;;;;;;;1.83;1.73;;;24.40;92.20;;;;;;4972313;28;20466;-68
2022/08/09 09:04:25;;;;;;;1.90;1.63;;;24.40;92.60;;;;;;4971622;28;20974;-69
2022/08/09 09:06:56;;;;;;;2.43;2.23;;;24.50;93.90;;;;;;4972242;28;20504;-70
2022/08/09 09:09:25;;;;;;;2.30;2.10;;;24.60;93.60;;;;;;4971602;28;20561;-69
2022/08/09 09:11:52;;;;;;;2.50;2.30;;;24.70;93.20;;;;;;4972899;28;20470;-71
2022/08/09 09:14:23;;;;;;;2.30;2.10;;;24.70;92.80;;;;;;4971299;28;20887;-70
2022/08/09 09:16:49;;;;;;;2.50;2.30;;;24.80;92.40;;;;;;4972905;28;20799;-69
2022/08/09 09:19:18;;;;;;;2.10;2.00;;;24.90;91.10;;;;;;4990125;28;20466;-73
2022/08/09 09:22:03;;;;;;;1.90;1.80;;;24.90;91.80;;;;;;4981117;28;20466;-69
2022/08/09 09:24:32;;;;;;;3.57;2.17;;;25.00;91.80;;;;;;4969950;28;20563;-70
2022/08/09 09:27:00;;;;;;;2.80;2.50;;;25.10;91.10;;;;;;4971049;28;21059;-70
2022/08/09 09:29:30;;;;;;;2.23;2.03;;;25.10;91.60;;;;;;4971208;28;20479;-71
2022/08/09 09:31:58;;;;;;;2.70;2.13;;;25.20;92.20;;;;;;4970603;28;21172;-70
2022/08/09 09:34:27;;;;;;;2.30;2.10;;;25.40;90.80;;;;;;4970769;28;20467;-70
2022/08/09 09:36:55;;;;;;;2.33;2.13;;;25.40;92.00;;;;;;4979980;28;20525;-70
2022/08/09 09:39:23;;;;;;;2.00;1.90;;;25.60;92.70;;;;;;4988431;28;20467;-72
2022/08/09 09:41:51;;;;;;;1.90;1.80;;;25.70;92.50;;;;;;4989825;28;20466;-72
2022/08/09 09:44:26;;;;;;;2.50;2.30;;;25.80;91.80;;;;;;4989206;28;20462;-72
2022/08/09 09:46:57;;;;;;;5.63;2.53;;;25.90;89.60;;;;;;4990058;28;20509;-70
2022/08/09 09:49:27;;;;;;;2.73;2.20;;;25.80;89.20;;;;;;4988846;28;21150;-69
2022/08/09 09:52:03;;;;;;;1.97;1.80;;;25.80;91.40;;;;;;4990304;28;20466;-69
2022/08/09 09:54:42;;;;;;;1.93;1.83;;;26.00;90.90;;;;;;4990252;28;20585;-69
2022/08/09 09:57:17;;;;;;;2.50;2.30;;;26.10;91.30;;;;;;4990263;28;20474;-70
2022/08/09 09:59:45;;;;;;;3.53;2.20;;;26.20;91.50;;;;;;4991052;28;20458;-70
2022/08/09 10:02:12;;;;;;;2.73;2.17;;;26.30;90.60;;;;;;4989908;28;20467;-70
2022/08/09 10:04:44;;;;;;;2.50;2.30;;;26.50;91.30;;;;;;4990668;28;20467;-69
2022/08/09 10:07:24;;;;;;;2.00;1.90;;;26.60;90.60;;;;;;4990804;28;20497;-70
2022/08/09 10:09:54;;;;;;;2.30;2.00;;;26.70;89.10;;;;;;4984955;28;20466;-70
2022/08/09 10:12:26;;;;;;;2.47;2.10;;;26.70;89.60;;;;;;4986796;28;20504;-71
2022/08/09 10:15:03;;;;;;;2.50;2.30;;;26.80;90.60;;;;;;4989962;28;20469;-70
2022/08/09 10:17:33;;;;;;;2.63;2.10;;;27.00;90.90;;;;;;4990309;28;20596;-70
2022/08/09 10:20:03;;;;;;;2.60;2.23;;;27.10;90.90;;;;;;4989814;28;20956;-70
2022/08/09 10:22:35;;;;;;;4.00;1.93;;;27.10;90.00;;;;;;4989658;28;20463;-70
2022/08/09 10:25:05;;;;;;;1.97;1.87;;;27.20;91.10;;;;;;4990001;28;20455;-70
2022/08/09 10:27:32;;;;;;;2.33;2.20;;;27.40;90.30;;;;;;4989632;28;20549;-70
2022/08/09 10:30:01;;;;;;;2.40;2.20;;;27.40;88.30;;;;;;4990317;28;20462;-70
2022/08/09 10:32:28;;;;;;;2.20;2.10;;;27.40;90.30;;;;;;4985318;28;20471;-70
2022/08/09 10:34:56;;;;;;;2.40;2.20;;;27.40;90.50;;;;;;4978084;28;20459;-72
2022/08/09 10:37:24;;;;;;;2.20;2.00;;;27.60;90.40;;;;;;4981913;28;20482;-69
2022/08/09 10:39:52;;;;;;;2.50;1.90;;;27.70;84.30;;;;;;4990263;28;20455;-70
2022/08/09 10:42:19;;;;;;;3.10;1.80;;;27.80;89.10;;;;;;4989727;28;20490;-70
2022/08/09 10:44:54;;;;;;;2.50;2.30;;;27.90;88.80;;;;;;4989634;28;20462;-71
2022/08/09 10:47:53;;;;;;;2.20;2.00;;;28.00;85.40;;;;;;4989921;28;20490;-70
2022/08/09 10:50:26;;;;;;;3.30;2.30;;;28.10;84.50;;;;;;4958377;28;20876;-71
2022/08/09 10:53:07;;;;;;;1.93;1.83;;;27.90;80.50;;;;;;4994348;28;20469;-70
2022/08/09 10:55:35;;;;;;;2.27;2.07;;;27.90;86.00;;;;;;4991836;28;20466;-71
2022/08/09 10:58:02;;;;;;;1.70;1.60;;;28.00;85.00;;;;;;4993026;28;20479;-71
2022/08/09 11:00:35;;;;;;;2.17;1.80;;;28.10;80.00;;;;;;4994038;28;20570;-70
2022/08/09 11:03:02;;;;;;;2.13;1.93;;;28.20;82.30;;;;;;4994280;28;20591;-71
2022/08/09 11:05:29;;;;;;;1.83;1.73;;;28.20;82.30;;;;;;4992954;28;20838;-71
2022/08/09 11:07:56;;;;;;;2.23;2.00;;;28.30;80.70;;;;;;4994130;28;20494;-70
2022/08/09 11:10:54;;;;;;;2.27;1.80;;;28.30;84.70;;;;;;4993114;28;20627;-71
2022/08/09 11:13:21;;;;;;;2.00;1.80;;;28.40;81.50;;;;;;4992631;28;20498;-71
2022/08/09 11:15:48;;;;;;;5.23;1.83;;;28.50;83.70;;;;;;4993784;28;20458;-70
2022/08/09 11:18:42;;;;;;;2.00;1.80;;;28.60;84.80;;;;;;4993449;28;20466;-70
2022/08/09 11:21:09;;;;;;;2.20;1.80;;;28.60;80.50;;;;;;4993063;28;20553;-70
2022/08/09 11:23:58;;;;;;;2.80;2.17;;;28.70;83.50;;;;;;4993128;28;20498;-69
2022/08/09 11:26:39;;;;;;;2.17;1.87;;;28.80;83.30;;;;;;4993099;28;21130;-70
2022/08/09 11:29:06;;;;;;;1.93;1.83;;;29.10;83.90;;;;;;4993330;28;20486;-71
2022/08/09 11:31:46;;;;;;;2.20;2.00;;;29.10;80.30;;;;;;4993603;28;20467;-69
2022/08/09 11:34:22;;;;;;;2.10;2.00;;;29.10;83.40;;;;;;4991914;28;20462;-70
2022/08/09 11:36:49;;;;;;;2.53;2.10;;;29.20;82.40;;;;;;4993063;28;20509;-71
2022/08/09 11:39:16;;;;;;;2.27;2.07;;;29.20;83.10;;;;;;4993071;28;20955;-70
2022/08/09 11:41:44;;;;;;;2.30;1.80;;;29.40;80.60;;;;;;4992740;28;20459;-69
2022/08/09 11:44:11;;;;;;;1.90;1.80;;;29.40;80.20;;;;;;4992399;28;20897;-71
2022/08/09 11:46:55;;;;;;;2.07;1.70;;;29.30;79.90;;;;;;4993520;28;20889;-71
2022/08/09 11:49:55;;;;;;;2.00;1.90;;;29.30;81.70;;;;;;4992696;28;20474;-70
2022/08/09 11:52:24;;;;;;;1.90;1.80;;;29.50;78.30;;;;;;4993076;28;20457;-70
2022/08/09 11:55:24;;;;;;;3.73;1.87;;;29.50;80.30;;;;;;4992411;28;20473;-70
2022/08/09 11:57:52;;;;;;;3.00;1.90;;;29.60;80.20;;;;;;4993290;28;21000;-69
2022/08/09 12:00:19;;;;;;;1.80;1.63;;;29.70;79.00;;;;;;4992698;28;20466;-70
2022/08/09 12:02:46;;;;;;;1.80;1.70;;;29.70;79.50;;;;;;5008161;23;20469;-69
2022/08/09 12:05:13;;;;;;;2.20;2.00;;;29.70;79.80;;;;;;4988303;28;20474;-69
2022/08/09 12:07:40;;;;;;;1.60;1.50;;;29.80;77.90;;;;;;4990524;28;20508;-70
2022/08/09 12:10:09;;;;;;;2.20;1.80;;;30.00;77.90;;;;;;4993059;28;20463;-70
2022/08/09 12:12:44;;;;;;;2.50;1.80;;;30.00;76.30;;;;;;4993157;28;20463;-70
2022/08/09 12:15:21;;;;;;;2.30;1.83;;;29.90;73.70;;;;;;4992784;28;20494;-70
2022/08/09 12:17:48;;;;;;;1.90;1.80;;;29.90;75.30;;;;;;4993134;28;21075;-70
2022/08/09 12:20:17;;;;;;;1.90;1.70;;;29.90;77.90;;;;;;4993193;28;20473;-70
2022/08/09 12:22:45;;;;;;;1.87;1.77;;;29.90;75.70;;;;;;4993282;28;20462;-70
2022/08/09 12:25:13;;;;;;;1.50;1.40;;;30.10;75.80;;;;;;4987625;28;20799;-70
2022/08/09 12:27:39;;;;;;;1.50;1.40;;;30.10;72.30;;;;;;4993259;28;20479;-70
2022/08/09 12:30:08;;;;;;;2.20;2.00;;;30.00;73.60;;;;;;4992129;28;20458;-70
2022/08/09 12:32:36;;;;;;;1.67;1.53;;;29.90;73.70;;;;;;4992618;28;20467;-70
2022/08/09 12:35:05;;;;;;;1.47;1.37;;;29.90;73.00;;;;;;4991567;28;20463;-70
2022/08/09 12:37:32;;;;;;;1.60;1.50;;;29.70;72.20;;;;;;4991486;28;20589;-70
2022/08/09 12:40:01;;;;;;;1.63;1.53;;;29.70;72.50;;;;;;4990676;28;20882;-70
2022/08/09 12:42:28;;;;;;;1.63;1.53;;;29.70;72.60;;;;;;4992171;28;20557;-70
2022/08/09 12:44:56;;;;;;;1.87;1.77;;;29.80;74.50;;;;;;4992016;28;20459;-70
2022/08/09 12:47:24;;;;;;;2.00;1.80;;;30.00;73.60;;;;;;4992328;28;20478;-70
2022/08/09 12:52:38;;;;;;;1.83;1.73;;;30.00;75.80;;;;;;4989779;28;20466;-70
2022/08/09 12:55:08;;;;;;;2.77;1.90;;;30.20;75.70;;;;;;4990597;28;20659;-70
2022/08/09 12:57:36;;;;;;;1.70;1.60;;;30.30;77.90;;;;;;4992020;28;20486;-70
2022/08/09 13:00:16;;;;;;;3.03;1.83;;;30.30;74.20;;;;;;4991552;28;20463;-70